KMGN

Harbor Springs Airport

Harbor Springs, Michigan, USA
METAR KMGN 230935Z AUTO 27004KT 10SM BKN022 OVC029 06/02 A3001 RMK AO2 T00610027
Observed Flight Rules
Oct-23 @ 09:35 UTC (8 minutes ago) Marginal Visual Flight Rules
Wind Visibility Clouds
270° at 4 knots 10 miles
  • Broken at 2,200' AGL
  • Overcast at 2,900' AGL
Temperatures Readings
Current 6°C / 43°F
Dewpoint 3°C / 37°F
Humidity 81%
Altimeter 30.01" Hg
Pressure 1016 hPa
Elevation 209
METAR KMGN 230935Z AUTO 27004KT 10SM BKN022 OVC029 06/02 A3001 RMK AO2 T00610027
Observed Flight Rules
Oct-23 @ 09:35 UTC
(8 minutes ago)
MVFR
Wind Visibility
270° at 4 knots 10 miles
Clouds
  • Broken at 2,200' AGL
  • Overcast at 2,900' AGL
Temperature Dewpoint
6°C / 43°F 3°C / 37°F
Humidity Altimeter Pressure
81% 30.01" Hg 1016 hPa